LFPG/CDG METAR and TAF weather

Enter ICAO airport designator
Station Type Date Time Source
LFPG METAR 2022/12/04 04:30 UTC NOAA

LFPG 040430Z 05010KT 9999 OVC012 02/00 Q1012 NOSIG


Station Type Date Time Source
LFPG Decoded METAR 2022/12/04 04:30 UTC NOAA

Paris-Aeroport Charles De Gaulle, France (LFPG) 49-01N 002-32E 109M
Dec 03, 2022 - 11:30 PM EST / 2022.12.04 0430 UTC
Wind: from the NE (050 degrees) at 12 MPH (10 KT):0
Visibility: greater than 7 mile(s):0
Sky conditions: overcast
Temperature: 35 F (2 C)
Windchill: 26 F (-3 C):1
Dew Point: 32 F (0 C)
Relative Humidity: 86%
Pressure (altimeter): 29.88 in. Hg (1012 hPa)
ob: LFPG 040430Z 05010KT 9999 OVC012 02/00 Q1012 NOSIG
cycle: 4

Station Type Date Time Source
LFPG TAF 2022/12/03 20:53 UTC NOAA

TAF
AMD LFPG 032041Z 0320/0424 05010KT 9999 OVC012 TX03/0414Z TN01/0405Z
TEMPO 0402/0406 BKN008

Example: see airport list